createdAt,value
2019-03-29T00:01:24.895Z,95690.64
2019-03-29T00:03:56.313Z,95688.55
2019-03-29T00:06:27.460Z,95683.73
2019-03-29T00:08:58.602Z,95688.55
2019-03-29T00:11:29.964Z,95685.81
2019-03-29T00:14:02.126Z,95686.30
2019-03-29T00:16:33.651Z,95685.31
2019-03-29T00:19:04.901Z,95685.31
2019-03-29T00:21:36.062Z,95686.62
2019-03-29T00:24:07.487Z,95688.19
2019-03-29T00:26:38.372Z,95698.53
2019-03-29T00:29:09.435Z,95701.09
2019-03-29T00:31:40.491Z,95699.00
2019-03-29T00:34:13.409Z,95694.36
2019-03-29T00:36:44.991Z,95700.46
2019-03-29T00:39:16.206Z,95701.59
2019-03-29T00:41:47.063Z,95700.14
2019-03-29T00:44:17.913Z,95696.89
2019-03-29T00:46:50.176Z,95704.94
2019-03-29T00:49:21.390Z,95704.72
2019-03-29T00:51:52.363Z,95709.24
2019-03-29T00:54:23.172Z,95702.96
2019-03-29T00:56:54.234Z,95700.72
2019-03-29T00:59:25.272Z,95703.38
2019-03-29T01:01:56.135Z,95700.30
2019-03-29T01:04:28.986Z,95700.00
2019-03-29T01:07:00.168Z,95700.95
2019-03-29T01:09:31.206Z,95700.58
2019-03-29T01:12:02.075Z,95698.34
2019-03-29T01:14:33.275Z,95692.24
2019-03-29T01:17:04.485Z,95691.22
2019-03-29T01:19:35.394Z,95681.98
2019-03-29T01:22:06.236Z,95682.29
2019-03-29T01:24:37.083Z,95683.12
2019-03-29T01:27:08.150Z,95684.14
2019-03-29T01:29:39.253Z,95682.16
2019-03-29T01:32:10.173Z,95684.14
2019-03-29T01:34:41.298Z,95686.84
2019-03-29T01:37:12.451Z,95685.64
2019-03-29T01:39:43.318Z,95678.73
2019-03-29T01:42:14.511Z,95674.38
2019-03-29T01:44:45.701Z,95676.97
2019-03-29T01:47:16.606Z,95677.30
2019-03-29T01:49:47.678Z,95680.63
2019-03-29T01:52:19.306Z,95680.95
2019-03-29T01:54:50.901Z,95679.08
2019-03-29T01:57:21.800Z,95678.87
2019-03-29T01:59:52.760Z,95678.33
2019-03-29T02:02:24.023Z,95680.77
2019-03-29T02:04:55.186Z,95678.58
2019-03-29T02:07:26.130Z,95679.00
2019-03-29T02:09:57.141Z,95678.52
2019-03-29T02:12:28.296Z,95678.06
2019-03-29T02:14:59.200Z,95683.16
2019-03-29T02:17:30.012Z,95684.84
2019-03-29T02:20:01.176Z,95688.09
2019-03-29T02:22:32.974Z,95679.72
2019-03-29T02:25:03.878Z,95684.16
2019-03-29T02:27:35.809Z,95687.50
2019-03-29T02:30:07.313Z,95686.93
2019-03-29T02:32:38.256Z,95688.32
2019-03-29T02:35:11.449Z,95688.70
2019-03-29T02:37:42.724Z,95692.89
2019-03-29T02:40:13.632Z,95700.81
2019-03-29T02:42:44.861Z,95703.47
2019-03-29T02:45:16.331Z,95699.45
2019-03-29T02:47:48.687Z,95703.64
2019-03-29T02:50:19.762Z,95706.95
2019-03-29T02:52:50.899Z,95694.90
2019-03-29T02:55:21.728Z,95699.91
2019-03-29T02:57:52.623Z,95698.48
2019-03-29T03:00:23.483Z,95704.00
2019-03-29T03:02:54.661Z,95704.95
2019-03-29T03:05:25.743Z,95703.87
2019-03-29T03:07:56.715Z,95697.73
2019-03-29T03:10:27.690Z,95704.94
2019-03-29T03:12:59.354Z,95709.16
2019-03-29T03:15:30.309Z,95708.45
2019-03-29T03:18:01.138Z,95707.97
2019-03-29T03:20:32.340Z,95704.85
2019-03-29T03:23:03.202Z,95710.64
2019-03-29T03:25:34.045Z,95705.66
2019-03-29T03:28:04.966Z,95708.33
2019-03-29T03:30:35.868Z,95708.92
2019-03-29T03:33:07.245Z,95707.53
2019-03-29T03:35:38.126Z,95713.11
2019-03-29T03:38:09.056Z,95709.63
2019-03-29T03:40:40.257Z,95712.58
2019-03-29T03:43:11.082Z,95704.08
2019-03-29T03:45:42.978Z,95710.09
2019-03-29T03:48:13.987Z,95713.94
2019-03-29T03:50:45.333Z,95706.55
2019-03-29T03:53:16.261Z,95716.91
2019-03-29T03:55:47.211Z,95719.98
2019-03-29T03:58:19.679Z,95716.34
2019-03-29T04:01:00.062Z,95715.73
2019-03-29T04:03:30.926Z,95719.19
2019-03-29T04:06:01.728Z,95741.32
2019-03-29T04:08:32.957Z,95722.70
2019-03-29T04:11:04.264Z,95727.23
2019-03-29T04:13:35.139Z,95729.08
2019-03-29T04:16:06.318Z,95731.90
2019-03-29T04:18:37.572Z,95726.84
2019-03-29T04:21:10.701Z,95733.33
2019-03-29T04:23:42.786Z,95730.80
2019-03-29T04:26:13.950Z,95739.59
2019-03-29T04:28:44.772Z,95733.27
2019-03-29T04:31:15.743Z,95741.69
2019-03-29T04:33:46.541Z,95727.52
2019-03-29T04:36:17.496Z,95721.72
2019-03-29T04:38:48.643Z,95728.11
2019-03-29T04:41:19.508Z,95733.16
2019-03-29T04:43:51.643Z,95731.23
2019-03-29T04:46:22.847Z,95730.95
2019-03-29T04:48:53.658Z,95723.83
2019-03-29T04:51:24.759Z,95726.20
2019-03-29T04:53:56.006Z,95729.75
2019-03-29T04:56:26.964Z,95730.34
2019-03-29T04:58:58.895Z,95730.19
2019-03-29T05:01:30.054Z,95726.95
2019-03-29T05:04:00.874Z,95736.05
2019-03-29T05:06:31.990Z,95736.14
2019-03-29T05:09:02.909Z,95733.98
2019-03-29T05:11:35.100Z,95739.94
2019-03-29T05:14:06.206Z,95735.73
2019-03-29T05:16:37.091Z,95731.48
2019-03-29T05:19:08.075Z,95738.44
2019-03-29T05:21:39.253Z,95741.14
2019-03-29T05:24:10.098Z,95740.80
2019-03-29T05:26:40.993Z,95734.22
2019-03-29T05:29:11.955Z,95736.52
2019-03-29T05:31:42.768Z,95733.95
2019-03-29T05:34:13.628Z,95730.71
2019-03-29T05:36:44.846Z,95733.30
2019-03-29T05:39:15.808Z,95732.63
2019-03-29T05:41:46.933Z,95735.81
2019-03-29T05:44:17.903Z,95735.16
2019-03-29T05:46:48.775Z,95735.45
2019-03-29T05:49:19.749Z,95741.58
2019-03-29T05:51:50.718Z,95736.84
2019-03-29T05:54:21.527Z,95726.80
2019-03-29T05:56:52.718Z,95730.57
2019-03-29T05:59:23.637Z,95734.46
2019-03-29T06:01:54.503Z,95733.86
2019-03-29T06:04:25.409Z,95736.12
2019-03-29T06:06:56.784Z,95745.67
2019-03-29T06:09:27.723Z,95745.13
2019-03-29T06:11:58.597Z,95750.73
2019-03-29T06:14:29.546Z,95746.05
2019-03-29T06:17:00.814Z,95748.90
2019-03-29T06:19:31.883Z,95749.00
2019-03-29T06:22:02.722Z,95758.17
2019-03-29T06:24:33.976Z,95752.98
2019-03-29T06:27:05.215Z,95755.26
2019-03-29T06:29:36.040Z,95755.29
2019-03-29T06:32:07.356Z,95756.27
2019-03-29T06:34:38.388Z,95746.62
2019-03-29T06:37:09.799Z,95750.27
2019-03-29T06:39:40.935Z,95746.71
2019-03-29T06:42:11.998Z,95749.27
2019-03-29T06:44:44.317Z,95741.68
2019-03-29T06:47:15.415Z,95741.44
2019-03-29T06:49:46.767Z,95738.52
2019-03-29T06:52:17.740Z,95736.16
2019-03-29T06:54:48.573Z,95730.16
2019-03-29T06:57:19.778Z,95732.91
2019-03-29T06:59:50.807Z,95733.50
2019-03-29T07:02:22.122Z,95737.11
2019-03-29T07:04:53.062Z,95728.08
2019-03-29T07:07:23.966Z,95734.02
2019-03-29T07:09:54.823Z,95727.13
2019-03-29T07:12:26.028Z,95730.92
2019-03-29T07:14:56.864Z,95719.48
2019-03-29T07:17:28.007Z,95718.39
2019-03-29T07:19:59.032Z,95721.22
2019-03-29T07:22:30.962Z,95723.13
2019-03-29T07:25:02.271Z,95723.59
2019-03-29T07:27:43.987Z,95716.59
2019-03-29T07:30:06.501Z,95717.71
2019-03-29T07:32:38.858Z,95711.39
2019-03-29T07:35:09.992Z,95703.78
2019-03-29T07:37:40.962Z,95703.98
2019-03-29T07:40:15.102Z,95707.05
2019-03-29T07:42:46.519Z,95705.86
2019-03-29T07:45:17.362Z,95706.35
2019-03-29T07:47:48.485Z,95702.08
2019-03-29T07:50:19.433Z,95696.69
2019-03-29T07:52:50.690Z,95693.48
2019-03-29T07:55:21.833Z,95690.62
2019-03-29T07:57:52.705Z,95690.17
2019-03-29T08:00:23.822Z,95690.89
2019-03-29T08:02:55.387Z,95685.30
2019-03-29T08:05:26.510Z,95686.20
2019-03-29T08:07:57.394Z,95692.02
2019-03-29T08:10:31.244Z,95685.23
2019-03-29T08:13:01.106Z,95679.83
2019-03-29T08:15:31.923Z,95677.13
2019-03-29T08:18:03.048Z,95678.75
2019-03-29T08:20:41.691Z,95675.66
2019-03-29T08:23:06.984Z,95677.47
2019-03-29T08:25:37.906Z,95668.93
2019-03-29T08:28:08.909Z,95674.63
2019-03-29T08:30:40.078Z,95669.61
2019-03-29T08:33:11.042Z,95664.47
2019-03-29T08:35:42.042Z,95670.86
2019-03-29T08:38:13.294Z,95667.38
2019-03-29T08:40:45.344Z,95668.53
2019-03-29T08:43:16.387Z,95668.23
2019-03-29T08:45:47.488Z,95663.74
2019-03-29T08:48:19.346Z,95666.63
2019-03-29T08:50:50.355Z,95653.83
2019-03-29T08:53:21.220Z,95668.55
2019-03-29T08:55:52.041Z,95658.47
2019-03-29T08:58:23.975Z,95661.97
2019-03-29T09:00:55.080Z,95651.96
2019-03-29T09:03:27.440Z,95656.06
2019-03-29T09:05:58.703Z,95648.59
2019-03-29T09:08:29.729Z,95637.51
2019-03-29T09:11:00.603Z,95639.48
2019-03-29T09:13:34.645Z,95647.23
2019-03-29T09:16:05.655Z,95634.85
2019-03-29T09:18:36.538Z,95643.61
2019-03-29T09:21:07.557Z,95631.59
2019-03-29T09:23:39.552Z,95632.06
2019-03-29T09:26:10.676Z,95617.85
2019-03-29T09:28:41.843Z,95623.33
2019-03-29T09:31:12.654Z,95611.67
2019-03-29T09:33:43.728Z,95602.55
2019-03-29T09:36:15.067Z,95603.09
2019-03-29T09:38:45.953Z,95592.94
2019-03-29T09:41:17.095Z,95608.27
2019-03-29T09:43:48.203Z,95597.86
2019-03-29T09:46:19.005Z,95595.85
2019-03-29T09:48:49.872Z,95587.70
2019-03-29T09:51:20.915Z,95582.38
2019-03-29T09:53:51.743Z,95577.23
2019-03-29T09:56:37.635Z,95322.34
2019-03-29T09:58:55.588Z,95571.41
2019-03-29T10:01:26.676Z,95568.95
2019-03-29T10:03:57.871Z,95560.17
2019-03-29T10:06:28.718Z,95556.91
2019-03-29T10:08:59.748Z,95564.30
2019-03-29T10:11:30.896Z,95569.62
2019-03-29T10:14:01.868Z,95557.96
2019-03-29T10:16:32.812Z,95548.14
2019-03-29T10:19:04.141Z,95557.77
2019-03-29T10:21:35.972Z,95552.26
2019-03-29T10:24:06.839Z,95552.16
2019-03-29T10:26:37.819Z,95551.22
2019-03-29T10:29:08.684Z,95553.80
2019-03-29T10:31:40.004Z,95552.20
2019-03-29T10:34:10.871Z,95533.34
2019-03-29T10:36:41.891Z,95537.01
2019-03-29T10:39:14.056Z,95540.22
2019-03-29T10:41:45.123Z,95541.48
2019-03-29T10:44:15.954Z,95537.09
2019-03-29T10:46:47.124Z,95526.66
2019-03-29T10:49:18.267Z,95520.17
2019-03-29T10:51:49.147Z,95521.52
2019-03-29T10:54:20.091Z,95517.95
2019-03-29T10:56:51.008Z,95519.63
2019-03-29T10:59:27.587Z,95522.45
2019-03-29T11:01:55.846Z,95520.66
2019-03-29T11:04:27.056Z,95522.48
2019-03-29T11:06:58.480Z,95528.70
2019-03-29T11:09:29.344Z,95519.59
2019-03-29T11:12:00.601Z,95518.00
2019-03-29T11:14:31.553Z,95529.06
2019-03-29T11:17:02.389Z,95516.94
2019-03-29T11:19:33.590Z,95516.11
2019-03-29T11:22:04.860Z,95518.78
2019-03-29T11:24:35.724Z,95516.42
2019-03-29T11:27:06.640Z,95511.92
2019-03-29T11:29:37.757Z,95507.70
2019-03-29T11:32:09.055Z,95516.35
2019-03-29T11:34:39.992Z,95520.11
2019-03-29T11:37:10.970Z,95502.41
2019-03-29T11:39:42.067Z,95501.86
2019-03-29T11:42:13.125Z,95497.94
2019-03-29T11:44:43.990Z,95498.40
2019-03-29T11:47:15.074Z,95496.86
2019-03-29T11:49:46.223Z,95492.63
2019-03-29T11:52:17.042Z,95492.90
2019-03-29T11:54:48.230Z,95502.62
2019-03-29T11:57:19.137Z,95491.08
2019-03-29T11:59:49.979Z,95491.30
2019-03-29T12:02:31.033Z,95484.02
2019-03-29T12:04:53.462Z,95485.31
2019-03-29T12:07:24.767Z,95486.50
2019-03-29T12:09:55.973Z,95482.84
2019-03-29T12:12:28.040Z,95474.91
2019-03-29T12:14:59.178Z,95481.00
2019-03-29T12:17:30.263Z,95487.30
2019-03-29T12:20:01.319Z,95487.27
2019-03-29T12:22:32.448Z,95484.08
2019-03-29T12:25:03.656Z,95479.63
2019-03-29T12:27:34.605Z,95474.92
2019-03-29T12:30:08.831Z,95467.98
2019-03-29T12:32:39.789Z,95462.88
2019-03-29T12:35:10.602Z,95470.82
2019-03-29T12:37:41.875Z,95463.58
2019-03-29T12:40:13.424Z,95456.16
2019-03-29T12:42:44.370Z,95456.77
2019-03-29T12:45:15.701Z,95453.59
2019-03-29T12:47:46.566Z,95455.03
2019-03-29T12:50:17.506Z,95455.03
2019-03-29T12:52:48.748Z,95449.86
2019-03-29T12:55:19.642Z,95439.81
2019-03-29T12:57:50.474Z,95447.51
2019-03-29T13:00:21.667Z,95447.51
2019-03-29T13:02:52.499Z,95441.11
2019-03-29T13:05:23.293Z,95452.78
2019-03-29T13:07:54.567Z,95448.80
2019-03-29T13:10:26.042Z,95443.55
2019-03-29T13:13:00.402Z,95432.03
2019-03-29T13:15:29.813Z,95438.88
2019-03-29T13:18:01.126Z,95438.03
2019-03-29T13:20:32.048Z,95433.55
2019-03-29T13:23:03.202Z,95434.77
2019-03-29T13:25:34.493Z,95422.36
2019-03-29T13:28:05.533Z,95430.41
2019-03-29T13:30:36.353Z,95433.50
2019-03-29T13:33:07.292Z,95426.97
2019-03-29T13:35:38.135Z,95429.45
2019-03-29T13:38:08.977Z,95414.70
2019-03-29T13:40:40.138Z,95406.92
2019-03-29T13:43:11.132Z,95410.88
2019-03-29T13:45:42.188Z,95408.39
2019-03-29T13:48:13.055Z,95421.80
2019-03-29T13:50:43.933Z,95419.48
2019-03-29T13:53:15.046Z,95417.84
2019-03-29T13:55:45.873Z,95420.02
2019-03-29T13:58:16.786Z,95421.28
2019-03-29T14:00:47.900Z,95410.41
2019-03-29T14:03:18.913Z,95419.70
2019-03-29T14:05:49.804Z,95428.74
2019-03-29T14:08:20.938Z,95426.51
2019-03-29T14:10:51.917Z,95426.81
2019-03-29T14:13:22.820Z,95425.60
2019-03-29T14:15:53.782Z,95421.27
2019-03-29T14:18:24.666Z,95419.75
2019-03-29T14:20:55.884Z,95409.50
2019-03-29T14:23:27.083Z,95417.67
2019-03-29T14:25:57.939Z,95414.73
2019-03-29T14:28:29.157Z,95414.73
2019-03-29T14:31:00.355Z,95418.94
2019-03-29T14:33:31.242Z,95409.47
2019-03-29T14:36:02.405Z,95411.09
2019-03-29T14:38:33.550Z,95408.16
2019-03-29T14:41:04.515Z,95409.42
2019-03-29T14:43:35.373Z,95409.42
2019-03-29T14:46:06.492Z,95401.40
2019-03-29T14:48:37.481Z,95405.00
2019-03-29T14:51:08.625Z,95396.11
2019-03-29T14:53:39.436Z,95394.06
2019-03-29T14:56:10.631Z,95402.59
2019-03-29T14:58:41.740Z,95405.28
2019-03-29T15:01:12.549Z,95394.70
2019-03-29T15:03:43.547Z,95389.00
2019-03-29T15:06:14.753Z,95393.64
2019-03-29T15:08:45.705Z,95399.00
2019-03-29T15:11:22.441Z,95393.69
2019-03-29T15:13:49.226Z,95391.91
2019-03-29T15:16:20.038Z,95391.37
2019-03-29T15:18:50.978Z,95392.91
2019-03-29T15:21:22.164Z,95390.99
2019-03-29T15:23:53.055Z,95397.13
2019-03-29T15:26:24.011Z,95394.47
2019-03-29T15:28:55.140Z,95385.20
2019-03-29T15:31:26.403Z,95389.31
2019-03-29T15:33:57.514Z,95386.00
2019-03-29T15:36:28.826Z,95397.41
2019-03-29T15:38:59.947Z,95398.36
2019-03-29T15:41:30.795Z,95395.18
2019-03-29T15:44:01.655Z,95397.30
2019-03-29T15:46:32.667Z,95400.00
2019-03-29T15:49:03.479Z,95402.39
2019-03-29T15:51:34.556Z,95403.41
2019-03-29T15:54:05.364Z,95397.10
2019-03-29T15:56:36.395Z,95392.72
2019-03-29T15:59:07.591Z,95401.59
2019-03-29T16:01:38.867Z,95408.38
2019-03-29T16:04:11.085Z,95412.86
2019-03-29T16:06:43.763Z,95407.86
2019-03-29T16:09:14.639Z,95413.14
2019-03-29T16:11:45.522Z,95427.92
2019-03-29T16:14:16.564Z,95421.67
2019-03-29T16:16:47.434Z,95432.88
2019-03-29T16:19:18.286Z,95438.45
2019-03-29T16:21:49.305Z,95437.24
2019-03-29T16:24:20.346Z,95435.13
2019-03-29T16:26:51.361Z,95437.03
2019-03-29T16:29:22.194Z,95440.55
2019-03-29T16:31:53.190Z,95444.23
2019-03-29T16:34:24.352Z,95446.45
2019-03-29T16:36:55.330Z,95443.66
2019-03-29T16:39:26.252Z,95452.72
2019-03-29T16:41:57.406Z,95451.95
2019-03-29T16:44:28.323Z,95454.70
2019-03-29T16:46:59.350Z,95460.69
2019-03-29T16:49:30.565Z,95466.34
2019-03-29T16:52:01.677Z,95463.27
2019-03-29T16:54:32.869Z,95469.82
2019-03-29T16:57:03.748Z,95466.27
2019-03-29T16:59:34.699Z,95469.69
2019-03-29T17:02:06.115Z,95469.61
2019-03-29T17:04:37.154Z,95472.73
2019-03-29T17:07:08.030Z,95473.23
2019-03-29T17:09:39.279Z,95475.13
2019-03-29T17:12:10.173Z,95472.77
2019-03-29T17:14:41.207Z,95469.98
2019-03-29T17:17:12.296Z,95480.72
2019-03-29T17:19:43.561Z,95478.13
2019-03-29T17:22:14.366Z,95480.05
2019-03-29T17:24:56.450Z,95486.08
2019-03-29T17:27:18.164Z,95490.11
2019-03-29T17:29:49.304Z,95485.22
2019-03-29T17:32:21.645Z,95498.00
2019-03-29T17:34:52.805Z,95486.69
2019-03-29T17:37:23.927Z,95491.53
2019-03-29T17:39:56.066Z,95492.84
2019-03-29T17:42:27.051Z,95492.44
2019-03-29T17:44:59.133Z,95496.75
2019-03-29T17:47:30.285Z,95491.86
2019-03-29T17:50:01.353Z,95492.62
2019-03-29T17:52:32.257Z,95500.34
2019-03-29T17:55:03.277Z,95499.34
2019-03-29T17:57:34.209Z,95505.37
2019-03-29T18:00:06.325Z,95514.12
2019-03-29T18:02:37.256Z,95517.89
2019-03-29T18:05:08.344Z,95520.99
2019-03-29T18:07:39.588Z,95524.34
2019-03-29T18:10:11.019Z,95519.13
2019-03-29T18:12:41.852Z,95524.34
2019-03-29T18:15:13.477Z,95520.43
2019-03-29T18:17:44.313Z,95526.91
2019-03-29T18:20:16.598Z,95531.25
2019-03-29T18:22:47.802Z,95527.37
2019-03-29T18:25:18.872Z,95533.25
2019-03-29T18:27:49.676Z,95524.75
2019-03-29T18:30:31.576Z,95518.78
2019-03-29T18:33:02.510Z,95517.03
2019-03-29T18:35:34.679Z,95529.72
2019-03-29T18:38:05.608Z,95529.17
2019-03-29T18:40:36.434Z,95530.91
2019-03-29T18:43:07.544Z,95531.32
2019-03-29T18:45:41.462Z,95534.08
2019-03-29T18:48:11.515Z,95533.02
2019-03-29T18:50:42.759Z,95534.65
2019-03-29T18:53:14.191Z,95530.52
2019-03-29T18:55:45.134Z,95532.11
2019-03-29T18:58:16.436Z,95535.02
2019-03-29T19:00:47.558Z,95533.71
2019-03-29T19:03:18.432Z,95531.58
2019-03-29T19:05:49.486Z,95541.81
2019-03-29T19:08:20.332Z,95548.03
2019-03-29T19:10:51.231Z,95542.75
2019-03-29T19:13:22.632Z,95542.81
2019-03-29T19:15:53.653Z,95548.32
2019-03-29T19:18:24.779Z,95551.17
2019-03-29T19:20:55.898Z,95552.05
2019-03-29T19:23:26.849Z,95548.77
2019-03-29T19:25:57.762Z,95549.26
2019-03-29T19:28:29.200Z,95549.64
2019-03-29T19:31:00.048Z,95548.57
2019-03-29T19:33:31.265Z,95542.94
2019-03-29T19:36:02.180Z,95538.86
2019-03-29T19:38:33.049Z,95543.06
2019-03-29T19:41:03.871Z,95539.86
2019-03-29T19:43:35.268Z,95537.87
2019-03-29T19:46:06.431Z,95542.00
2019-03-29T19:48:38.271Z,95542.39
2019-03-29T19:51:09.431Z,95541.17
2019-03-29T19:53:40.834Z,95543.48
2019-03-29T19:56:11.751Z,95542.58
2019-03-29T19:58:42.936Z,95539.28
2019-03-29T20:01:14.013Z,95543.56
2019-03-29T20:03:44.943Z,95539.70
2019-03-29T20:06:15.877Z,95537.09
2019-03-29T20:08:46.706Z,95534.19
2019-03-29T20:11:17.611Z,95529.61
2019-03-29T20:13:48.855Z,95534.69
2019-03-29T20:16:19.774Z,95540.00
2019-03-29T20:18:50.948Z,95529.78
2019-03-29T20:21:22.123Z,95532.50
2019-03-29T20:23:53.067Z,95527.90
2019-03-29T20:26:23.960Z,95526.97
2019-03-29T20:28:55.320Z,95523.48
2019-03-29T20:31:27.968Z,95527.47
2019-03-29T20:33:59.070Z,95530.25
2019-03-29T20:36:30.034Z,95529.55
2019-03-29T20:39:01.817Z,95531.92
2019-03-29T20:41:34.387Z,95523.08
2019-03-29T20:44:05.340Z,95524.45
2019-03-29T20:46:36.377Z,95521.92
2019-03-29T20:49:07.467Z,95523.95
2019-03-29T20:51:38.279Z,95527.23
2019-03-29T20:54:09.354Z,95520.80
2019-03-29T20:56:40.448Z,95523.77
2019-03-29T20:59:12.819Z,95534.30
2019-03-29T21:01:43.656Z,95533.92
2019-03-29T21:04:15.041Z,95530.30
2019-03-29T21:06:45.902Z,95532.19
2019-03-29T21:09:16.996Z,95541.39
2019-03-29T21:11:47.976Z,95538.36
2019-03-29T21:14:19.230Z,95538.34
2019-03-29T21:16:50.520Z,95530.94
2019-03-29T21:19:21.630Z,95532.63
2019-03-29T21:21:53.609Z,95535.56
2019-03-29T21:24:24.890Z,95531.33
2019-03-29T21:26:55.936Z,95534.72
2019-03-29T21:29:26.814Z,95537.34
2019-03-29T21:31:58.001Z,95538.38
2019-03-29T21:34:29.318Z,95543.91
2019-03-29T21:37:00.128Z,95546.33
2019-03-29T21:39:31.444Z,95550.32
2019-03-29T21:42:02.779Z,95551.49
2019-03-29T21:44:33.997Z,95552.20
2019-03-29T21:47:04.968Z,95555.52
2019-03-29T21:49:36.025Z,95556.45
2019-03-29T21:52:07.151Z,95557.05
2019-03-29T21:54:38.455Z,95553.56
2019-03-29T21:57:09.388Z,95548.56
2019-03-29T21:59:40.598Z,95556.67
2019-03-29T22:02:11.723Z,95551.95
2019-03-29T22:04:43.854Z,95551.98
2019-03-29T22:07:14.861Z,95560.20
2019-03-29T22:09:46.075Z,95549.00
2019-03-29T22:12:16.910Z,95550.36
2019-03-29T22:14:48.038Z,95545.42
2019-03-29T22:17:19.110Z,95532.34
2019-03-29T22:19:50.291Z,95545.38
2019-03-29T22:22:21.413Z,95539.25
2019-03-29T22:24:52.338Z,95542.87
2019-03-29T22:27:23.282Z,95540.98
2019-03-29T22:29:54.603Z,95546.72
2019-03-29T22:32:25.529Z,95552.95
2019-03-29T22:34:56.405Z,95561.22
2019-03-29T22:37:27.562Z,95556.47
2019-03-29T22:39:58.402Z,95563.55
2019-03-29T22:42:29.266Z,95562.06
2019-03-29T22:45:00.431Z,95552.50
2019-03-29T22:47:31.606Z,95555.98
2019-03-29T22:50:02.963Z,95554.97
2019-03-29T22:52:33.796Z,95539.34
2019-03-29T22:55:04.928Z,95542.73
2019-03-29T22:57:36.087Z,95546.53
2019-03-29T23:00:14.990Z,95565.13
2019-03-29T23:02:47.681Z,95542.35
2019-03-29T23:05:18.631Z,95546.16
2019-03-29T23:07:49.563Z,95546.00
2019-03-29T23:10:20.570Z,95544.71
2019-03-29T23:12:51.655Z,95541.32
2019-03-29T23:15:22.794Z,95536.44
2019-03-29T23:17:53.749Z,95531.30
2019-03-29T23:20:24.893Z,95528.66
2019-03-29T23:22:55.751Z,95530.93
2019-03-29T23:25:27.062Z,95519.37
2019-03-29T23:27:58.238Z,95520.01
2019-03-29T23:30:29.163Z,95526.97
2019-03-29T23:33:00.300Z,95521.86
2019-03-29T23:35:31.297Z,95517.98
2019-03-29T23:38:02.180Z,95516.89
2019-03-29T23:40:33.127Z,95515.29
2019-03-29T23:43:04.359Z,95509.25
2019-03-29T23:45:35.483Z,95510.19
2019-03-29T23:48:06.545Z,95509.33
2019-03-29T23:50:37.861Z,95511.20
2019-03-29T23:53:08.784Z,95504.83
2019-03-29T23:55:40.077Z,95503.84
2019-03-29T23:58:11.239Z,95503.99
